Time;durP1;ratioP1;P1;durP2;ratioP2;P2;SDS_P1;SDS_P2;PMS_P1;PMS_P2;Temp;Humidity;BMP_temperature;BMP_pressure;BME280_temperature;BME280_humidity;BME280_pressure;Samples;Min_cycle;Max_cycle;Signal;HPM_P1;HPM_P2
2022/01/24 00:02:50;;;;;;;15.63;14.02;;;21.40;65.40;;;;;;6197929;28;83018;-67
2022/01/24 00:05:52;;;;;;;15.75;14.05;;;21.40;65.40;;;;;;6210642;28;84419;-68
2022/01/24 00:08:54;;;;;;;15.00;13.55;;;21.40;65.40;;;;;;6209524;28;84063;-68
2022/01/24 00:12:12;;;;;;;15.35;13.85;;;21.40;65.40;;;;;;6201424;28;83024;-68
2022/01/24 00:15:20;;;;;;;14.93;13.48;;;21.30;65.40;;;;;;6188168;28;83031;-68
2022/01/24 00:26:37;;;;;;;15.68;14.07;;;21.30;65.30;;;;;;6198103;28;84308;-68
2022/01/24 00:28:33;;;;;;;14.93;13.40;;;21.20;65.30;;;;;;6188206;28;82784;-67
2022/01/24 00:31:35;;;;;;;15.32;13.80;;;21.30;65.40;;;;;;6208087;28;84062;-68
2022/01/24 00:34:37;;;;;;;15.07;13.57;;;21.30;65.50;;;;;;6206421;28;84271;-67
2022/01/24 00:37:40;;;;;;;16.05;14.45;;;21.30;65.50;;;;;;6222084;28;84030;-68
2022/01/24 00:40:45;;;;;;;14.77;13.38;;;21.20;65.40;;;;;;6211086;28;83103;-68
2022/01/24 00:44:04;;;;;;;14.82;13.43;;;21.30;65.50;;;;;;6191265;28;84331;-68
2022/01/24 00:47:12;;;;;;;15.05;13.45;;;21.30;65.40;;;;;;6210122;28;85017;-68
2022/01/24 00:53:50;;;;;;;15.30;13.75;;;21.20;65.30;;;;;;6208838;28;82658;-68
2022/01/24 00:56:52;;;;;;;15.00;13.60;;;21.20;65.30;;;;;;6204889;28;85056;-67
2022/01/24 00:59:56;;;;;;;14.93;13.52;;;21.20;65.40;;;;;;6203480;28;84068;-68
2022/01/24 01:02:58;;;;;;;15.60;14.05;;;21.20;65.50;;;;;;6223247;28;83996;-67
2022/01/24 01:06:05;;;;;;;15.10;13.50;;;21.20;65.50;;;;;;6197566;28;84367;-67
2022/01/24 01:19:07;;;;;;;14.95;13.50;;;21.10;65.50;;;;;;6213090;28;82950;-67
2022/01/24 01:22:09;;;;;;;15.27;13.80;;;21.10;66.50;;;;;;6199800;28;84147;-68
2022/01/24 01:25:31;;;;;;;15.45;13.77;;;21.10;65.50;;;;;;6196291;28;83318;-68
2022/01/24 01:28:34;;;;;;;14.90;13.50;;;21.10;65.50;;;;;;6195853;28;85019;-67
2022/01/24 01:31:45;;;;;;;16.05;14.45;;;21.10;65.50;;;;;;6210361;28;84074;-68
2022/01/24 01:35:06;;;;;;;15.40;13.90;;;21.10;65.60;;;;;;6212088;28;82824;-68
2022/01/24 01:38:43;;;;;;;15.77;14.20;;;21.10;65.50;;;;;;6205724;28;83675;-68
2022/01/24 01:55:16;;;;;;;15.73;14.23;;;21.10;65.50;;;;;;6204149;28;83518;-68
2022/01/24 01:58:20;;;;;;;15.45;13.88;;;21.00;65.50;;;;;;6205116;28;82979;-68
2022/01/24 02:01:22;;;;;;;16.27;14.68;;;21.00;65.50;;;;;;6209954;28;84176;-68
2022/01/24 02:04:26;;;;;;;15.82;14.23;;;21.00;65.50;;;;;;6209073;28;82870;-68
2022/01/24 02:07:28;;;;;;;16.45;14.82;;;21.00;65.50;;;;;;6207508;28;84074;-67
2022/01/24 02:10:32;;;;;;;15.65;14.05;;;21.00;65.60;;;;;;6197622;28;84135;-68
2022/01/24 02:13:35;;;;;;;15.77;14.18;;;21.00;65.50;;;;;;6209731;28;84149;-68
2022/01/24 02:16:45;;;;;;;15.65;14.07;;;21.00;65.50;;;;;;6209676;28;84478;-67
2022/01/24 02:20:05;;;;;;;15.45;13.95;;;21.00;65.60;;;;;;6208901;28;84104;-68
2022/01/24 02:23:20;;;;;;;15.60;14.10;;;21.00;65.60;;;;;;6201255;28;84123;-67
2022/01/24 02:26:22;;;;;;;15.93;14.32;;;20.90;65.50;;;;;;6220660;28;83732;-68
2022/01/24 02:29:41;;;;;;;15.57;14.07;;;21.00;65.60;;;;;;6208286;28;83766;-68
2022/01/24 02:32:43;;;;;;;15.32;13.82;;;20.90;65.60;;;;;;6215155;28;85345;-68
2022/01/24 02:35:46;;;;;;;16.25;14.65;;;20.90;65.60;;;;;;6196846;28;84077;-68
2022/01/24 02:39:04;;;;;;;14.82;13.43;;;20.90;65.50;;;;;;6200259;28;84030;-68
2022/01/24 02:48:46;;;;;;;15.77;14.27;;;20.90;65.50;;;;;;6201361;28;82650;-67
2022/01/24 02:51:48;;;;;;;14.73;13.32;;;20.90;65.50;;;;;;6217827;28;84004;-68
2022/01/24 02:54:51;;;;;;;15.18;13.73;;;20.90;65.50;;;;;;6206367;28;82714;-67
2022/01/24 02:57:55;;;;;;;15.68;14.18;;;20.90;65.50;;;;;;6209911;28;83491;-67
2022/01/24 03:00:57;;;;;;;15.18;13.68;;;20.90;65.60;;;;;;6195129;28;82972;-67
2022/01/24 03:03:59;;;;;;;15.27;13.77;;;20.80;65.50;;;;;;6206781;28;85062;-67
2022/01/24 03:07:01;;;;;;;15.95;14.40;;;20.80;65.50;;;;;;6209181;28;82917;-68
2022/01/24 03:10:13;;;;;;;14.30;12.88;;;20.90;65.60;;;;;;6198825;28;83991;-67
2022/01/24 03:16:35;;;;;;;14.52;13.13;;;20.80;65.50;;;;;;6206458;28;84676;-67
2022/01/24 03:19:37;;;;;;;15.05;13.55;;;20.80;65.50;;;;;;6204231;28;84419;-68
2022/01/24 03:22:39;;;;;;;14.20;12.80;;;20.80;65.50;;;;;;6192360;28;83951;-67
2022/01/24 03:25:43;;;;;;;14.40;13.00;;;20.90;65.60;;;;;;6218832;28;82751;-67
2022/01/24 03:28:45;;;;;;;15.40;13.90;;;20.80;65.60;;;;;;6194806;28;84140;-66
2022/01/24 03:31:48;;;;;;;14.23;12.85;;;20.80;65.60;;;;;;6197386;28;84423;-68
2022/01/24 03:34:50;;;;;;;14.25;12.75;;;20.80;65.60;;;;;;6197222;28;85035;-68
2022/01/24 03:37:52;;;;;;;13.63;12.23;;;20.80;65.60;;;;;;6196971;28;84104;-68
2022/01/24 03:40:55;;;;;;;13.52;12.23;;;20.80;65.60;;;;;;6208057;28;84902;-67
2022/01/24 03:44:03;;;;;;;13.82;12.52;;;20.80;65.60;;;;;;6186184;28;84023;-67
2022/01/24 03:47:29;;;;;;;13.93;12.52;;;20.80;65.60;;;;;;6193681;28;84744;-68
2022/01/24 03:50:31;;;;;;;13.63;12.23;;;20.70;65.50;;;;;;6212429;28;83936;-67
2022/01/24 03:53:33;;;;;;;13.43;12.13;;;20.80;65.60;;;;;;6206050;28;83470;-68
2022/01/24 03:56:37;;;;;;;13.30;12.00;;;20.80;65.60;;;;;;6197980;28;83327;-67
2022/01/24 03:59:39;;;;;;;13.30;12.00;;;20.70;65.50;;;;;;6201948;28;85149;-67
2022/01/24 04:02:43;;;;;;;13.38;12.07;;;20.70;65.50;;;;;;6206679;28;82927;-67
2022/01/24 04:05:45;;;;;;;13.40;12.10;;;20.70;65.50;;;;;;6228801;28;84994;-67
2022/01/24 04:08:47;;;;;;;13.15;11.85;;;20.70;65.60;;;;;;6215365;28;82937;-67
2022/01/24 04:11:54;;;;;;;13.32;12.02;;;20.70;65.50;;;;;;6221416;28;84130;-68
2022/01/24 04:15:09;;;;;;;12.93;11.73;;;20.70;66.30;;;;;;6201062;28;83972;-67
2022/01/24 04:18:32;;;;;;;12.48;11.27;;;20.70;65.40;;;;;;6186458;28;84046;-67
2022/01/24 04:21:37;;;;;;;12.77;11.57;;;20.70;65.40;;;;;;6198903;28;83730;-67
2022/01/24 04:24:39;;;;;;;12.45;11.18;;;20.70;65.30;;;;;;6211794;28;84670;-68
2022/01/24 04:27:43;;;;;;;12.10;10.90;;;20.70;65.30;;;;;;6210832;28;83225;-67
2022/01/24 04:30:47;;;;;;;12.18;11.00;;;20.70;65.30;;;;;;6203170;28;84044;-68
2022/01/24 04:33:50;;;;;;;12.38;11.18;;;20.70;65.30;;;;;;6206670;28;83933;-68
2022/01/24 04:36:52;;;;;;;11.90;10.70;;;20.70;65.30;;;;;;6203791;28;84972;-67
2022/01/24 04:39:56;;;;;;;11.77;10.68;;;20.80;65.30;;;;;;6192240;28;84076;-68
2022/01/24 04:43:20;;;;;;;11.60;10.50;;;20.80;65.20;;;;;;6211203;28;84084;-67
2022/01/24 04:46:48;;;;;;;11.68;10.57;;;20.80;65.10;;;;;;6209719;28;84165;-67
2022/01/24 04:53:27;;;;;;;11.25;10.18;;;20.90;65.10;;;;;;6210466;28;82824;-67
2022/01/24 04:56:29;;;;;;;10.75;9.75;;;20.90;65.10;;;;;;6210840;28;84693;-67
2022/01/24 04:59:32;;;;;;;10.90;9.88;;;20.90;65.00;;;;;;6212252;28;82334;-68
2022/01/24 05:02:34;;;;;;;10.98;9.98;;;20.90;65.00;;;;;;6213633;28;82973;-67
2022/01/24 05:05:36;;;;;;;10.48;9.57;;;21.00;65.00;;;;;;6206406;28;84016;-67
2022/01/24 05:08:38;;;;;;;10.57;9.57;;;21.00;65.00;;;;;;6201126;28;84990;-68
2022/01/24 05:11:47;;;;;;;10.70;9.63;;;21.00;64.90;;;;;;6206217;28;84136;-68
2022/01/24 05:25:03;;;;;;;10.30;9.30;;;21.10;64.60;;;;;;6210789;28;82267;-68
2022/01/24 05:28:05;;;;;;;9.88;8.98;;;21.10;64.60;;;;;;6210993;28;82939;-68
2022/01/24 05:31:08;;;;;;;9.60;8.70;;;21.20;64.60;;;;;;6205824;28;83208;-67
2022/01/24 05:34:10;;;;;;;9.98;8.98;;;21.20;64.60;;;;;;6207168;28;84358;-68
2022/01/24 05:37:12;;;;;;;9.90;8.90;;;21.20;64.50;;;;;;6203837;28;82900;-70
2022/01/24 05:40:14;;;;;;;9.57;8.68;;;21.20;64.60;;;;;;6210849;28;85023;-68
2022/01/24 05:43:16;;;;;;;9.65;8.75;;;21.30;64.60;;;;;;6205142;28;83972;-69
2022/01/24 05:46:20;;;;;;;9.50;8.60;;;21.30;64.60;;;;;;6199552;28;84125;-67
2022/01/24 05:49:22;;;;;;;9.40;8.50;;;21.30;64.60;;;;;;6204197;28;84220;-67
2022/01/24 05:52:24;;;;;;;9.30;8.48;;;21.40;64.50;;;;;;6194763;28;84045;-67
2022/01/24 05:55:26;;;;;;;8.90;8.10;;;21.40;64.60;;;;;;6209275;28;84110;-67
2022/01/24 05:58:28;;;;;;;8.82;8.00;;;21.40;64.60;;;;;;6209326;28;84066;-68
2022/01/24 06:01:32;;;;;;;9.55;8.60;;;21.30;64.50;;;;;;6207791;28;83338;-67
2022/01/24 06:04:34;;;;;;;9.25;8.30;;;21.30;64.50;;;;;;6188304;28;83966;-67
2022/01/24 06:07:36;;;;;;;8.35;7.55;;;21.30;64.60;;;;;;6210611;28;84182;-68
2022/01/24 06:10:39;;;;;;;8.90;8.00;;;21.30;64.60;;;;;;6185419;28;85092;-67
2022/01/24 06:13:42;;;;;;;8.88;8.07;;;21.30;64.60;;;;;;6184891;28;84043;-68
2022/01/24 06:16:45;;;;;;;8.85;8.05;;;21.30;64.60;;;;;;6211298;28;82929;-68
2022/01/24 06:19:47;;;;;;;8.05;7.30;;;21.20;64.60;;;;;;6208884;28;83340;-68
2022/01/24 06:23:07;;;;;;;9.13;8.15;;;21.30;64.80;;;;;;6210270;28;83996;-68
2022/01/24 06:26:10;;;;;;;8.43;7.63;;;21.30;64.70;;;;;;6207577;28;84080;-68
2022/01/24 06:29:12;;;;;;;8.50;7.70;;;21.20;64.80;;;;;;6208781;28;84324;-68
2022/01/24 06:32:15;;;;;;;8.40;7.40;;;21.20;64.70;;;;;;6211029;28;82199;-68
2022/01/24 06:35:17;;;;;;;8.20;7.47;;;21.20;64.70;;;;;;6196511;28;84047;-67
2022/01/24 06:38:19;;;;;;;8.18;7.38;;;21.30;64.80;;;;;;6203711;28;84023;-68
2022/01/24 06:41:27;;;;;;;8.45;7.55;;;21.20;64.70;;;;;;6200591;28;84944;-68
2022/01/24 06:44:29;;;;;;;8.32;7.53;;;21.30;64.80;;;;;;6210774;28;84017;-68
2022/01/24 06:47:32;;;;;;;8.43;7.53;;;21.30;64.80;;;;;;6209693;28;84011;-68
2022/01/24 06:50:34;;;;;;;7.65;6.95;;;21.30;64.80;;;;;;6208706;28;82962;-68
2022/01/24 06:53:36;;;;;;;7.88;7.18;;;21.30;64.80;;;;;;6210894;28;82991;-68
2022/01/24 06:56:38;;;;;;;7.78;7.00;;;21.20;64.70;;;;;;6196299;28;83989;-67
2022/01/24 06:59:41;;;;;;;7.45;6.75;;;21.30;64.80;;;;;;6207439;28;84098;-68
2022/01/24 07:02:44;;;;;;;7.88;7.07;;;21.30;64.70;;;;;;6197850;28;83502;-67
2022/01/24 07:05:46;;;;;;;7.63;6.90;;;21.30;64.80;;;;;;6208324;28;84064;-68
2022/01/24 07:08:48;;;;;;;7.68;6.97;;;21.30;64.70;;;;;;6208630;28;84389;-68
2022/01/24 07:11:51;;;;;;;7.32;6.63;;;21.30;64.60;;;;;;6197324;28;84978;-68
2022/01/24 07:14:54;;;;;;;7.82;7.03;;;21.30;64.60;;;;;;6209978;28;84116;-68
2022/01/24 07:18:13;;;;;;;7.30;6.55;;;21.30;64.60;;;;;;6210810;28;83967;-67
2022/01/24 07:21:15;;;;;;;7.57;6.88;;;21.30;64.60;;;;;;6203745;28;84313;-67
2022/01/24 07:24:17;;;;;;;7.00;6.40;;;21.30;64.60;;;;;;6201975;28;84152;-67
2022/01/24 07:27:19;;;;;;;7.97;7.18;;;21.40;64.70;;;;;;6211736;28;84406;-67
2022/01/24 07:30:22;;;;;;;6.80;6.15;;;21.30;64.60;;;;;;6208046;28;84039;-67
2022/01/24 07:33:25;;;;;;;7.10;6.40;;;21.40;64.50;;;;;;6214866;28;83649;-68
2022/01/24 07:36:27;;;;;;;7.18;6.55;;;21.40;64.50;;;;;;6212216;28;84112;-67
2022/01/24 07:39:31;;;;;;;7.03;6.32;;;21.40;64.50;;;;;;6223708;28;83762;-68
2022/01/24 07:42:52;;;;;;;7.47;6.63;;;21.40;64.50;;;;;;6216299;28;85014;-67
2022/01/24 07:45:54;;;;;;;7.05;6.35;;;21.40;64.40;;;;;;6210738;28;84396;-67
2022/01/24 07:48:58;;;;;;;6.65;6.05;;;21.50;65.40;;;;;;6212766;28;83020;-68
2022/01/24 07:52:00;;;;;;;7.50;6.70;;;21.50;64.50;;;;;;6209883;28;84048;-68
2022/01/24 07:55:02;;;;;;;6.32;5.72;;;21.40;64.40;;;;;;6213017;28;83999;-67
2022/01/24 07:58:04;;;;;;;6.85;6.18;;;21.50;64.40;;;;;;6211052;28;83994;-67
2022/01/24 08:01:07;;;;;;;6.43;5.82;;;21.50;64.40;;;;;;6199768;28;83971;-68
2022/01/24 08:04:10;;;;;;;6.20;5.60;;;21.50;64.20;;;;;;6193324;28;83380;-68
2022/01/24 08:07:12;;;;;;;6.40;5.63;;;21.50;64.30;;;;;;6207428;28;83251;-68
2022/01/24 08:10:14;;;;;;;6.35;5.72;;;21.60;64.30;;;;;;6199962;28;83984;-68
2022/01/24 08:13:16;;;;;;;6.65;6.05;;;21.60;64.20;;;;;;6210784;28;84975;-68
2022/01/24 08:16:18;;;;;;;6.70;6.10;;;21.60;64.30;;;;;;6211826;28;83989;-67
2022/01/24 08:19:21;;;;;;;6.40;5.80;;;21.60;64.20;;;;;;6204446;28;83800;-67
2022/01/24 08:22:24;;;;;;;6.28;5.70;;;21.60;64.20;;;;;;6194713;28;83990;-67
2022/01/24 08:25:26;;;;;;;6.00;5.50;;;21.60;64.20;;;;;;6212862;28;82955;-68
2022/01/24 08:28:28;;;;;;;6.15;5.55;;;21.60;64.20;;;;;;6198622;28;84272;-67
2022/01/24 08:31:30;;;;;;;6.13;5.45;;;21.70;64.20;;;;;;6199136;28;84128;-67
2022/01/24 08:34:33;;;;;;;6.03;5.50;;;21.60;64.10;;;;;;6211768;28;83303;-67
2022/01/24 08:37:36;;;;;;;5.78;5.28;;;21.60;64.10;;;;;;6200893;28;84885;-68
2022/01/24 08:40:40;;;;;;;6.13;5.53;;;21.60;64.10;;;;;;6201211;28;83972;-68
2022/01/24 08:43:57;;;;;;;5.75;5.25;;;21.70;64.10;;;;;;6232569;28;84945;-67
2022/01/24 08:46:59;;;;;;;5.72;5.22;;;21.70;64.10;;;;;;6227101;28;83966;-67
2022/01/24 08:50:05;;;;;;;5.88;5.35;;;21.70;64.00;;;;;;6210407;28;84066;-67
2022/01/24 08:53:07;;;;;;;5.80;5.30;;;21.70;64.00;;;;;;6211770;28;84040;-68
2022/01/24 08:56:11;;;;;;;5.50;5.00;;;21.70;64.00;;;;;;6198141;28;84032;-68
2022/01/24 08:59:13;;;;;;;5.60;5.10;;;21.70;64.00;;;;;;6213830;28;84267;-67
2022/01/24 09:02:15;;;;;;;5.45;4.78;;;21.70;64.00;;;;;;6199254;28;84000;-67
2022/01/24 09:05:21;;;;;;;5.40;4.90;;;21.70;64.00;;;;;;6210568;28;83350;-68
2022/01/24 09:08:23;;;;;;;5.30;4.80;;;21.80;64.10;;;;;;6208510;28;83945;-67
2022/01/24 09:11:29;;;;;;;5.60;5.10;;;21.80;64.00;;;;;;6185904;28;84019;-67
2022/01/24 09:14:31;;;;;;;5.40;4.90;;;21.80;64.00;;;;;;6206754;28;84860;-67
2022/01/24 09:17:33;;;;;;;5.53;5.03;;;21.80;64.00;;;;;;6197036;28;84093;-68
2022/01/24 09:20:38;;;;;;;5.43;4.93;;;21.80;64.00;;;;;;6212405;28;84011;-68
2022/01/24 09:23:40;;;;;;;4.90;4.50;;;21.80;64.00;;;;;;6198884;28;82925;-67
2022/01/24 09:26:42;;;;;;;5.00;4.60;;;21.80;64.00;;;;;;6210737;28;84074;-68
2022/01/24 09:29:44;;;;;;;5.13;4.63;;;21.80;64.00;;;;;;6209700;28;84032;-68
2022/01/24 09:32:46;;;;;;;4.70;4.30;;;21.80;64.00;;;;;;6223386;28;83966;-68
2022/01/24 09:35:51;;;;;;;4.88;4.47;;;21.80;64.00;;;;;;6212967;28;83346;-68
2022/01/24 09:38:53;;;;;;;4.53;4.13;;;21.80;64.10;;;;;;6199719;28;84057;-68
2022/01/24 09:41:56;;;;;;;4.65;4.25;;;21.90;64.10;;;;;;6200917;28;83998;-67
2022/01/24 09:44:58;;;;;;;5.00;4.60;;;21.80;64.00;;;;;;6204776;28;85354;-68
2022/01/24 09:48:00;;;;;;;5.45;4.88;;;21.90;64.20;;;;;;6226319;28;84355;-67
2022/01/24 09:51:03;;;;;;;4.60;4.20;;;21.90;64.10;;;;;;6213325;28;84224;-67
2022/01/24 09:54:06;;;;;;;4.90;4.45;;;21.90;64.20;;;;;;6196161;28;83931;-68
2022/01/24 09:57:08;;;;;;;4.65;4.25;;;21.90;64.10;;;;;;6197698;28;84134;-67
2022/01/24 10:00:13;;;;;;;4.75;4.35;;;21.90;64.10;;;;;;6210418;28;83929;-67
2022/01/24 10:03:15;;;;;;;4.40;4.03;;;21.90;64.10;;;;;;6197875;28;84595;-67
2022/01/24 10:06:18;;;;;;;4.60;4.20;;;22.00;64.20;;;;;;6200380;28;83641;-68
2022/01/24 10:09:28;;;;;;;4.50;4.10;;;22.00;64.10;;;;;;6198854;28;83898;-68
2022/01/24 10:16:24;;;;;;;4.28;3.95;;;22.00;64.10;;;;;;6189983;28;84086;-68
2022/01/24 10:19:17;;;;;;;4.40;4.00;;;22.00;64.10;;;;;;6208639;28;82230;-68
2022/01/24 10:22:24;;;;;;;4.55;4.15;;;22.00;64.10;;;;;;6211063;28;84095;-67
2022/01/24 10:25:26;;;;;;;4.78;3.97;;;22.00;64.10;;;;;;6207336;28;83737;-68
2022/01/24 10:28:33;;;;;;;3.75;3.45;;;22.00;65.00;;;;;;6202039;28;83985;-68
2022/01/24 10:31:35;;;;;;;4.43;4.00;;;22.00;64.20;;;;;;6210470;28;84027;-68
2022/01/24 10:34:37;;;;;;;4.40;4.00;;;22.00;64.10;;;;;;6196584;28;83178;-68
2022/01/24 10:37:41;;;;;;;4.05;3.75;;;22.00;64.10;;;;;;6211364;28;83674;-67
2022/01/24 10:40:50;;;;;;;3.80;3.50;;;22.00;64.10;;;;;;6197224;28;83925;-68
2022/01/24 10:43:56;;;;;;;4.03;3.72;;;22.00;64.00;;;;;;6208639;28;83005;-68
2022/01/24 10:47:19;;;;;;;3.90;3.53;;;22.10;64.10;;;;;;6208311;28;85131;-67
2022/01/24 10:50:25;;;;;;;4.00;3.60;;;22.10;64.10;;;;;;6210534;28;82944;-67
2022/01/24 10:53:37;;;;;;;3.90;3.60;;;22.10;64.00;;;;;;6198601;28;84041;-67
2022/01/24 10:56:42;;;;;;;3.75;3.45;;;22.10;64.00;;;;;;6212323;28;84001;-68
2022/01/24 10:59:44;;;;;;;4.05;3.72;;;22.10;64.00;;;;;;6182883;28;83975;-67
2022/01/24 11:02:49;;;;;;;4.00;3.60;;;22.10;64.00;;;;;;6207078;28;84071;-68
2022/01/24 11:05:51;;;;;;;3.72;3.42;;;22.10;64.00;;;;;;6189664;28;84045;-68
2022/01/24 11:09:15;;;;;;;3.72;3.42;;;22.10;64.00;;;;;;6204924;28;83363;-68
2022/01/24 11:12:18;;;;;;;4.20;3.80;;;22.10;64.00;;;;;;6194691;28;84049;-68
2022/01/24 11:15:20;;;;;;;3.72;3.40;;;22.20;64.10;;;;;;6209521;28;84010;-67
2022/01/24 11:18:23;;;;;;;3.85;3.55;;;22.10;64.10;;;;;;6186120;28;85006;-68
2022/01/24 11:21:32;;;;;;;3.50;3.20;;;22.10;64.10;;;;;;6208669;28;84057;-68
2022/01/24 11:24:41;;;;;;;3.30;3.00;;;22.10;64.20;;;;;;6209764;28;84029;-68
2022/01/24 11:27:47;;;;;;;3.75;3.45;;;22.10;64.20;;;;;;6195847;28;84224;-68
2022/01/24 11:31:00;;;;;;;3.50;3.20;;;22.10;64.20;;;;;;6207459;28;84003;-68
2022/01/24 11:34:09;;;;;;;3.45;3.15;;;22.20;64.20;;;;;;6207098;28;84026;-68
2022/01/24 11:37:32;;;;;;;3.53;3.22;;;22.20;64.20;;;;;;6199842;28;84009;-68
2022/01/24 11:40:57;;;;;;;3.30;3.00;;;22.10;64.10;;;;;;6208004;28;83236;-68
2022/01/24 11:44:07;;;;;;;3.55;3.25;;;22.10;64.20;;;;;;6196008;28;84501;-68
2022/01/24 11:47:22;;;;;;;3.40;3.10;;;22.10;64.20;;;;;;6195292;28;84113;-68
2022/01/24 11:50:31;;;;;;;3.58;3.28;;;22.10;64.20;;;;;;6195869;28;83939;-67
2022/01/24 11:53:37;;;;;;;3.22;2.97;;;22.20;64.20;;;;;;6198980;28;82886;-68
2022/01/24 11:56:40;;;;;;;3.10;2.85;;;22.10;64.30;;;;;;6208530;28;84032;-68
2022/01/24 11:59:42;;;;;;;3.05;2.80;;;22.20;64.30;;;;;;6208516;28;82948;-68
2022/01/24 12:02:46;;;;;;;3.35;3.08;;;22.10;64.50;;;;;;6209385;28;84042;-68
2022/01/24 12:05:51;;;;;;;3.13;2.88;;;22.10;64.30;;;;;;6194991;28;84320;-68
2022/01/24 12:09:02;;;;;;;3.30;3.00;;;22.10;64.20;;;;;;6205665;28;83772;-68
2022/01/24 12:12:41;;;;;;;3.03;2.80;;;22.10;64.30;;;;;;6221509;28;82182;-68
2022/01/24 12:16:04;;;;;;;3.30;3.00;;;22.10;64.30;;;;;;6194454;28;84328;-68
2022/01/24 12:19:07;;;;;;;2.90;2.70;;;22.10;64.30;;;;;;6195822;28;84242;-68
2022/01/24 12:22:36;;;;;;;2.83;2.63;;;22.10;64.40;;;;;;6212225;28;85287;-68
2022/01/24 12:25:49;;;;;;;3.17;2.88;;;22.10;64.40;;;;;;6211623;28;84129;-68
2022/01/24 12:28:53;;;;;;;2.83;2.55;;;22.00;64.40;;;;;;6213268;28;83091;-68
2022/01/24 12:31:59;;;;;;;2.83;2.63;;;22.00;64.40;;;;;;6199275;28;83797;-68
2022/01/24 12:35:02;;;;;;;3.00;2.80;;;22.00;64.40;;;;;;6209262;28;83926;-68
2022/01/24 12:38:15;;;;;;;2.70;2.50;;;22.00;64.50;;;;;;6209598;28;84130;-68
2022/01/24 12:41:18;;;;;;;2.63;2.42;;;21.90;64.50;;;;;;6198917;28;84519;-68
2022/01/24 12:47:43;;;;;;;2.70;2.50;;;21.90;64.60;;;;;;6219218;28;82487;-68
2022/01/24 12:50:48;;;;;;;2.80;2.60;;;21.90;64.70;;;;;;6219071;28;83906;-68
2022/01/24 12:53:50;;;;;;;2.65;2.45;;;21.90;64.70;;;;;;6188220;28;85412;-68
2022/01/24 12:56:58;;;;;;;2.60;2.40;;;21.80;64.70;;;;;;6212838;28;84388;-68
2022/01/24 13:00:02;;;;;;;2.80;2.60;;;21.80;64.70;;;;;;6211493;28;84040;-68
2022/01/24 13:03:06;;;;;;;2.80;2.60;;;21.80;64.80;;;;;;6212523;28;83836;-68
2022/01/24 13:06:14;;;;;;;2.70;2.50;;;21.70;64.70;;;;;;6210701;28;84074;-68
2022/01/24 13:09:19;;;;;;;3.00;2.47;;;21.70;64.80;;;;;;6207303;28;83977;-68
2022/01/24 13:12:22;;;;;;;2.50;2.30;;;21.70;64.90;;;;;;6202761;28;83772;-68
2022/01/24 13:20:24;;;;;;;2.53;2.33;;;21.70;64.90;;;;;;6211875;28;82315;-68
2022/01/24 13:22:27;;;;;;;2.60;2.40;;;21.60;65.00;;;;;;6204139;28;82278;-68
2022/01/24 13:25:31;;;;;;;2.60;2.40;;;21.70;65.00;;;;;;6204596;28;84920;-68
2022/01/24 13:28:33;;;;;;;3.00;2.80;;;21.60;65.00;;;;;;6202304;28;84134;-68
2022/01/24 13:31:35;;;;;;;2.90;2.70;;;21.60;65.00;;;;;;6210231;28;83964;-68
2022/01/24 13:34:38;;;;;;;2.45;2.25;;;21.60;65.00;;;;;;6212753;28;84385;-68
2022/01/24 13:37:41;;;;;;;2.50;2.30;;;21.60;65.00;;;;;;6211067;28;84067;-68
2022/01/24 13:40:52;;;;;;;2.70;2.50;;;21.60;65.10;;;;;;6197188;28;84935;-68
2022/01/24 13:43:58;;;;;;;2.60;2.40;;;21.60;65.20;;;;;;6222839;28;85434;-68
2022/01/24 13:47:09;;;;;;;2.72;2.42;;;21.50;65.00;;;;;;6200865;28;83334;-68
2022/01/24 13:50:17;;;;;;;2.38;2.17;;;21.50;65.20;;;;;;6208412;28;82930;-69
2022/01/24 13:53:38;;;;;;;2.40;2.20;;;21.50;65.20;;;;;;6209120;28;83988;-68
2022/01/24 13:56:43;;;;;;;2.55;2.35;;;21.50;65.30;;;;;;6210574;28;85006;-68
2022/01/24 13:59:45;;;;;;;2.40;2.20;;;21.40;65.20;;;;;;6201210;28;84010;-69
2022/01/24 14:02:47;;;;;;;2.30;2.00;;;21.50;65.20;;;;;;6231121;28;84269;-68
2022/01/24 14:06:15;;;;;;;2.30;2.10;;;21.40;65.20;;;;;;6215037;28;84056;-69
2022/01/24 14:09:17;;;;;;;2.33;2.13;;;21.40;65.40;;;;;;6209162;28;84059;-68
2022/01/24 14:12:21;;;;;;;2.65;2.33;;;21.40;65.40;;;;;;6208967;28;84117;-68
2022/01/24 14:15:32;;;;;;;2.38;2.17;;;21.40;65.40;;;;;;6199983;28;82943;-68
2022/01/24 14:18:34;;;;;;;2.40;2.20;;;21.40;65.40;;;;;;6224065;28;83297;-69
2022/01/24 14:21:38;;;;;;;2.40;2.20;;;21.40;65.40;;;;;;6200191;28;84147;-67
2022/01/24 14:24:49;;;;;;;2.40;2.20;;;21.30;65.30;;;;;;6209518;28;84068;-68
2022/01/24 14:27:53;;;;;;;2.30;2.10;;;21.30;65.40;;;;;;6195610;28;84861;-68
2022/01/24 14:30:56;;;;;;;2.22;2.03;;;21.40;65.40;;;;;;6210000;28;83175;-68
2022/01/24 14:34:19;;;;;;;1.92;1.83;;;21.30;65.40;;;;;;6195849;28;84018;-68
2022/01/24 14:37:22;;;;;;;2.40;2.20;;;21.30;65.50;;;;;;6194791;28;83899;-69
2022/01/24 14:40:45;;;;;;;2.47;2.28;;;21.30;65.50;;;;;;6198995;28;84559;-69
2022/01/24 14:47:08;;;;;;;2.95;2.20;;;21.30;65.50;;;;;;6197930;28;82326;-68
2022/01/24 14:50:10;;;;;;;2.40;2.20;;;21.30;65.60;;;;;;6198545;28;83291;-69
2022/01/24 14:53:16;;;;;;;2.53;2.10;;;21.30;65.80;;;;;;6207829;28;82963;-69
2022/01/24 14:56:18;;;;;;;2.53;2.33;;;21.30;65.80;;;;;;6188716;28;84006;-68
2022/01/24 14:59:21;;;;;;;4.20;2.13;;;21.20;65.80;;;;;;6204201;28;84996;-68
2022/01/24 15:02:23;;;;;;;2.33;1.90;;;21.20;66.00;;;;;;6201748;28;84327;-69
2022/01/24 15:05:25;;;;;;;2.78;2.15;;;21.20;66.10;;;;;;6195809;28;84051;-68
2022/01/24 15:08:28;;;;;;;4.03;2.20;;;21.20;66.10;;;;;;6203451;28;84052;-69
2022/01/24 15:11:31;;;;;;;2.28;2.08;;;21.20;66.00;;;;;;6184599;28;84405;-69
2022/01/24 15:14:37;;;;;;;3.47;2.30;;;21.20;66.00;;;;;;6198267;28;82970;-68
2022/01/24 15:23:55;;;;;;;2.63;1.92;;;21.20;66.00;;;;;;6185095;28;84310;-68
2022/01/24 15:24:37;;;;;;;2.75;1.88;;;21.20;66.00;;;;;;6124736;28;83164;-69
2022/01/24 15:27:40;;;;;;;2.00;1.77;;;21.20;66.10;;;;;;6187291;28;84022;-68
2022/01/24 15:30:42;;;;;;;2.40;1.80;;;21.10;66.00;;;;;;6211387;28;84975;-69
2022/01/24 15:33:44;;;;;;;2.00;1.80;;;21.10;66.10;;;;;;6195730;28;84166;-69
2022/01/24 15:36:48;;;;;;;2.10;1.90;;;21.10;66.10;;;;;;6201893;28;84101;-69
2022/01/24 15:39:54;;;;;;;2.10;1.92;;;21.10;66.10;;;;;;6198158;28;83889;-68
2022/01/24 15:43:01;;;;;;;2.03;1.83;;;21.10;66.00;;;;;;6198841;28;83063;-69
2022/01/24 15:46:34;;;;;;;2.20;2.00;;;21.10;66.10;;;;;;6198202;28;84534;-70
2022/01/24 15:49:25;;;;;;;2.28;1.95;;;21.10;66.10;;;;;;6199606;28;82714;-68
2022/01/24 15:52:27;;;;;;;3.63;2.08;;;21.10;66.20;;;;;;6197716;28;83371;-69
2022/01/24 15:55:33;;;;;;;3.65;2.03;;;21.10;66.30;;;;;;6201984;28;84041;-68
2022/01/24 15:58:35;;;;;;;2.20;1.95;;;21.10;66.30;;;;;;6205163;28;84246;-69
2022/01/24 16:01:39;;;;;;;2.72;1.98;;;21.10;66.30;;;;;;6208050;28;85049;-68
2022/01/24 16:04:41;;;;;;;4.18;1.98;;;21.20;66.50;;;;;;6211450;28;82886;-68
2022/01/24 16:07:43;;;;;;;3.20;2.00;;;21.10;66.60;;;;;;6203432;28;84031;-68
2022/01/24 16:10:46;;;;;;;3.42;2.25;;;21.20;66.60;;;;;;6212586;28;84023;-68
2022/01/24 16:13:49;;;;;;;2.30;1.92;;;21.20;66.50;;;;;;6199427;28;84337;-69
2022/01/24 16:16:51;;;;;;;2.33;1.88;;;21.20;66.30;;;;;;6212056;28;84049;-68
2022/01/24 16:19:55;;;;;;;3.47;2.00;;;21.20;66.30;;;;;;6226110;28;82969;-69
2022/01/24 16:23:04;;;;;;;3.97;1.90;;;21.20;66.10;;;;;;6200029;28;83244;-68
2022/01/24 16:26:08;;;;;;;2.58;1.98;;;21.20;66.10;;;;;;6211638;28;84119;-68
2022/01/24 16:29:10;;;;;;;2.38;1.77;;;21.30;66.00;;;;;;6212828;28;84436;-68
2022/01/24 16:32:12;;;;;;;2.35;2.00;;;21.30;66.00;;;;;;6197685;28;85314;-69
2022/01/24 16:35:14;;;;;;;2.13;1.92;;;21.30;65.80;;;;;;6218079;28;83994;-68
2022/01/24 16:38:16;;;;;;;2.08;1.88;;;21.30;65.70;;;;;;6207252;28;84005;-68
2022/01/24 16:41:22;;;;;;;2.00;1.90;;;21.40;65.70;;;;;;6201418;28;84033;-68
2022/01/24 16:44:41;;;;;;;2.28;2.08;;;21.40;65.70;;;;;;6203446;28;84106;-68
2022/01/24 16:47:42;;;;;;;2.10;1.90;;;21.40;65.50;;;;;;6222299;28;84100;-68
2022/01/24 16:50:44;;;;;;;2.63;1.98;;;21.40;65.40;;;;;;6211204;28;83973;-68
2022/01/24 16:53:50;;;;;;;2.05;1.85;;;21.50;65.50;;;;;;6187041;28;83340;-68
2022/01/24 16:56:54;;;;;;;2.20;1.80;;;21.50;65.40;;;;;;6200430;28;84008;-69
2022/01/24 16:59:56;;;;;;;2.28;1.92;;;21.50;65.40;;;;;;6211754;28;84039;-69
2022/01/24 17:02:58;;;;;;;2.97;1.92;;;21.50;65.20;;;;;;6205921;28;84022;-68
2022/01/24 17:06:01;;;;;;;3.58;1.95;;;21.60;65.40;;;;;;6210339;28;83950;-68
2022/01/24 17:09:05;;;;;;;2.08;1.88;;;21.60;66.20;;;;;;6213187;28;82852;-68
2022/01/24 17:12:10;;;;;;;2.50;2.30;;;21.70;65.50;;;;;;6198741;28;84044;-68
2022/01/24 17:15:13;;;;;;;2.65;2.08;;;21.70;65.50;;;;;;6222361;28;84288;-68